sensor_id;sensor_type;location;lat;lon;timestamp;P1;durP1;ratioP1;P2;durP2;ratioP2
2838;SDS011;1427;48.510;9.060;2024-01-27T00:00:27;44.80;;;1.50;;
2838;SDS011;1427;48.510;9.060;2024-01-27T00:02:55;45.23;;;1.60;;
2838;SDS011;1427;48.510;9.060;2024-01-27T00:05:23;44.97;;;1.70;;
2838;SDS011;1427;48.510;9.060;2024-01-27T00:07:56;45.00;;;1.33;;
2838;SDS011;1427;48.510;9.060;2024-01-27T00:10:24;45.57;;;2.57;;
2838;SDS011;1427;48.510;9.060;2024-01-27T00:12:54;45.53;;;2.00;;
2838;SDS011;1427;48.510;9.060;2024-01-27T00:15:21;45.47;;;2.03;;
2838;SDS011;1427;48.510;9.060;2024-01-27T00:17:49;44.83;;;1.40;;
2838;SDS011;1427;48.510;9.060;2024-01-27T00:20:18;47.80;;;2.33;;
2838;SDS011;1427;48.510;9.060;2024-01-27T00:22:46;44.90;;;1.53;;
2838;SDS011;1427;48.510;9.060;2024-01-27T00:25:14;48.23;;;5.90;;
2838;SDS011;1427;48.510;9.060;2024-01-27T00:27:42;48.70;;;3.10;;
2838;SDS011;1427;48.510;9.060;2024-01-27T00:30:12;44.60;;;1.63;;
2838;SDS011;1427;48.510;9.060;2024-01-27T00:32:40;45.33;;;2.00;;
2838;SDS011;1427;48.510;9.060;2024-01-27T00:35:08;45.33;;;2.10;;
2838;SDS011;1427;48.510;9.060;2024-01-27T00:37:37;45.00;;;1.80;;
2838;SDS011;1427;48.510;9.060;2024-01-27T00:40:07;45.20;;;1.83;;
2838;SDS011;1427;48.510;9.060;2024-01-27T00:42:35;44.90;;;1.50;;
2838;SDS011;1427;48.510;9.060;2024-01-27T00:45:04;44.80;;;1.40;;
2838;SDS011;1427;48.510;9.060;2024-01-27T00:47:34;45.27;;;1.83;;
2838;SDS011;1427;48.510;9.060;2024-01-27T00:50:03;45.10;;;1.90;;
2838;SDS011;1427;48.510;9.060;2024-01-27T00:52:32;45.23;;;1.83;;
2838;SDS011;1427;48.510;9.060;2024-01-27T00:55:00;44.90;;;1.63;;
2838;SDS011;1427;48.510;9.060;2024-01-27T00:57:28;44.77;;;1.97;;
2838;SDS011;1427;48.510;9.060;2024-01-27T00:59:56;45.10;;;2.00;;
2838;SDS011;1427;48.510;9.060;2024-01-27T01:02:24;44.80;;;1.57;;
2838;SDS011;1427;48.510;9.060;2024-01-27T01:04:53;44.70;;;1.80;;
2838;SDS011;1427;48.510;9.060;2024-01-27T01:07:21;44.97;;;1.80;;
2838;SDS011;1427;48.510;9.060;2024-01-27T01:09:49;45.13;;;1.87;;
2838;SDS011;1427;48.510;9.060;2024-01-27T01:12:17;45.47;;;2.33;;
2838;SDS011;1427;48.510;9.060;2024-01-27T01:14:45;44.97;;;1.60;;
2838;SDS011;1427;48.510;9.060;2024-01-27T01:17:13;45.57;;;2.00;;
2838;SDS011;1427;48.510;9.060;2024-01-27T01:19:41;44.67;;;2.00;;
2838;SDS011;1427;48.510;9.060;2024-01-27T01:22:11;46.40;;;2.80;;
2838;SDS011;1427;48.510;9.060;2024-01-27T01:24:39;44.80;;;1.80;;
2838;SDS011;1427;48.510;9.060;2024-01-27T01:27:07;44.97;;;1.70;;
2838;SDS011;1427;48.510;9.060;2024-01-27T01:29:35;45.23;;;2.37;;
2838;SDS011;1427;48.510;9.060;2024-01-27T01:32:03;44.90;;;1.40;;
2838;SDS011;1427;48.510;9.060;2024-01-27T01:34:31;44.70;;;1.70;;
2838;SDS011;1427;48.510;9.060;2024-01-27T01:37:00;44.67;;;1.73;;
2838;SDS011;1427;48.510;9.060;2024-01-27T01:39:30;45.07;;;2.00;;
2838;SDS011;1427;48.510;9.060;2024-01-27T01:41:58;44.50;;;1.50;;
2838;SDS011;1427;48.510;9.060;2024-01-27T01:44:28;44.90;;;1.53;;
2838;SDS011;1427;48.510;9.060;2024-01-27T01:46:58;44.87;;;1.57;;
2838;SDS011;1427;48.510;9.060;2024-01-27T01:49:26;44.70;;;1.50;;
2838;SDS011;1427;48.510;9.060;2024-01-27T01:51:54;44.60;;;1.57;;
2838;SDS011;1427;48.510;9.060;2024-01-27T01:54:24;45.00;;;1.50;;
2838;SDS011;1427;48.510;9.060;2024-01-27T01:56:56;44.67;;;1.77;;
2838;SDS011;1427;48.510;9.060;2024-01-27T01:59:25;45.10;;;1.67;;
2838;SDS011;1427;48.510;9.060;2024-01-27T02:01:54;44.77;;;1.70;;
2838;SDS011;1427;48.510;9.060;2024-01-27T02:04:22;44.97;;;1.60;;
2838;SDS011;1427;48.510;9.060;2024-01-27T02:06:50;44.80;;;1.70;;
2838;SDS011;1427;48.510;9.060;2024-01-27T02:09:18;45.07;;;1.50;;
2838;SDS011;1427;48.510;9.060;2024-01-27T02:11:46;45.67;;;3.27;;
2838;SDS011;1427;48.510;9.060;2024-01-27T02:14:15;44.60;;;1.50;;
2838;SDS011;1427;48.510;9.060;2024-01-27T02:16:44;44.97;;;1.80;;
2838;SDS011;1427;48.510;9.060;2024-01-27T02:19:12;44.70;;;1.60;;
2838;SDS011;1427;48.510;9.060;2024-01-27T02:21:40;44.97;;;1.60;;
2838;SDS011;1427;48.510;9.060;2024-01-27T02:24:10;45.00;;;1.70;;
2838;SDS011;1427;48.510;9.060;2024-01-27T02:26:38;45.27;;;2.00;;
2838;SDS011;1427;48.510;9.060;2024-01-27T02:29:06;45.00;;;1.70;;
2838;SDS011;1427;48.510;9.060;2024-01-27T02:31:34;45.00;;;1.70;;
2838;SDS011;1427;48.510;9.060;2024-01-27T02:34:02;45.07;;;1.90;;
2838;SDS011;1427;48.510;9.060;2024-01-27T02:36:31;45.27;;;2.73;;
2838;SDS011;1427;48.510;9.060;2024-01-27T02:38:59;44.90;;;1.70;;
2838;SDS011;1427;48.510;9.060;2024-01-27T02:41:28;44.80;;;1.50;;
2838;SDS011;1427;48.510;9.060;2024-01-27T02:43:56;45.00;;;1.80;;
2838;SDS011;1427;48.510;9.060;2024-01-27T02:46:24;44.87;;;1.60;;
2838;SDS011;1427;48.510;9.060;2024-01-27T02:48:52;45.73;;;2.63;;
2838;SDS011;1427;48.510;9.060;2024-01-27T02:51:20;46.87;;;6.20;;
2838;SDS011;1427;48.510;9.060;2024-01-27T02:53:48;44.70;;;1.67;;
2838;SDS011;1427;48.510;9.060;2024-01-27T02:56:17;45.10;;;1.83;;
2838;SDS011;1427;48.510;9.060;2024-01-27T02:58:46;44.83;;;1.80;;
2838;SDS011;1427;48.510;9.060;2024-01-27T03:01:14;44.60;;;1.50;;
2838;SDS011;1427;48.510;9.060;2024-01-27T03:03:42;44.60;;;1.50;;
2838;SDS011;1427;48.510;9.060;2024-01-27T03:06:10;44.77;;;1.77;;
2838;SDS011;1427;48.510;9.060;2024-01-27T03:08:38;44.70;;;1.80;;
2838;SDS011;1427;48.510;9.060;2024-01-27T03:11:06;44.70;;;1.50;;
2838;SDS011;1427;48.510;9.060;2024-01-27T03:13:34;45.53;;;3.00;;
2838;SDS011;1427;48.510;9.060;2024-01-27T03:16:08;44.80;;;1.60;;
2838;SDS011;1427;48.510;9.060;2024-01-27T03:18:36;44.70;;;1.47;;
2838;SDS011;1427;48.510;9.060;2024-01-27T03:21:05;44.80;;;1.70;;
2838;SDS011;1427;48.510;9.060;2024-01-27T03:23:33;44.70;;;1.70;;
2838;SDS011;1427;48.510;9.060;2024-01-27T03:26:02;45.03;;;1.90;;
2838;SDS011;1427;48.510;9.060;2024-01-27T03:28:31;45.30;;;2.33;;
2838;SDS011;1427;48.510;9.060;2024-01-27T03:30:59;44.60;;;1.67;;
2838;SDS011;1427;48.510;9.060;2024-01-27T03:33:28;44.77;;;1.40;;
2838;SDS011;1427;48.510;9.060;2024-01-27T03:35:57;44.60;;;1.40;;
2838;SDS011;1427;48.510;9.060;2024-01-27T03:38:25;44.80;;;1.67;;
2838;SDS011;1427;48.510;9.060;2024-01-27T03:40:53;44.57;;;1.47;;
2838;SDS011;1427;48.510;9.060;2024-01-27T03:43:21;44.70;;;1.50;;
2838;SDS011;1427;48.510;9.060;2024-01-27T03:45:49;44.80;;;1.70;;
2838;SDS011;1427;48.510;9.060;2024-01-27T03:48:18;44.70;;;1.70;;
2838;SDS011;1427;48.510;9.060;2024-01-27T03:50:47;44.63;;;1.47;;
2838;SDS011;1427;48.510;9.060;2024-01-27T03:53:15;44.60;;;1.40;;
2838;SDS011;1427;48.510;9.060;2024-01-27T03:55:43;44.40;;;1.40;;
2838;SDS011;1427;48.510;9.060;2024-01-27T03:58:11;44.50;;;1.50;;
2838;SDS011;1427;48.510;9.060;2024-01-27T04:00:39;44.93;;;1.60;;
2838;SDS011;1427;48.510;9.060;2024-01-27T04:03:11;44.87;;;1.63;;
2838;SDS011;1427;48.510;9.060;2024-01-27T04:05:39;44.90;;;1.60;;
2838;SDS011;1427;48.510;9.060;2024-01-27T04:08:09;44.83;;;1.70;;
2838;SDS011;1427;48.510;9.060;2024-01-27T04:10:37;44.77;;;1.70;;
2838;SDS011;1427;48.510;9.060;2024-01-27T04:13:05;44.60;;;1.60;;
2838;SDS011;1427;48.510;9.060;2024-01-27T04:15:33;44.60;;;1.50;;
2838;SDS011;1427;48.510;9.060;2024-01-27T04:18:05;44.60;;;1.53;;
2838;SDS011;1427;48.510;9.060;2024-01-27T04:20:35;45.43;;;2.63;;
2838;SDS011;1427;48.510;9.060;2024-01-27T04:23:03;44.87;;;1.70;;
2838;SDS011;1427;48.510;9.060;2024-01-27T04:25:32;45.20;;;2.57;;
2838;SDS011;1427;48.510;9.060;2024-01-27T04:28:00;44.50;;;1.60;;
2838;SDS011;1427;48.510;9.060;2024-01-27T04:30:29;44.63;;;1.93;;
2838;SDS011;1427;48.510;9.060;2024-01-27T04:32:57;44.67;;;1.50;;
2838;SDS011;1427;48.510;9.060;2024-01-27T04:35:26;44.70;;;1.50;;
2838;SDS011;1427;48.510;9.060;2024-01-27T04:37:54;44.70;;;1.40;;
2838;SDS011;1427;48.510;9.060;2024-01-27T04:40:22;44.77;;;1.50;;
2838;SDS011;1427;48.510;9.060;2024-01-27T04:42:51;44.70;;;1.80;;
2838;SDS011;1427;48.510;9.060;2024-01-27T04:45:19;44.67;;;1.70;;
2838;SDS011;1427;48.510;9.060;2024-01-27T04:47:47;44.80;;;1.87;;
2838;SDS011;1427;48.510;9.060;2024-01-27T04:50:15;44.87;;;1.50;;
2838;SDS011;1427;48.510;9.060;2024-01-27T04:52:43;44.80;;;2.00;;
2838;SDS011;1427;48.510;9.060;2024-01-27T04:55:11;44.93;;;1.90;;
2838;SDS011;1427;48.510;9.060;2024-01-27T04:57:39;44.97;;;1.90;;
2838;SDS011;1427;48.510;9.060;2024-01-27T05:00:10;44.67;;;1.70;;
2838;SDS011;1427;48.510;9.060;2024-01-27T05:02:39;44.50;;;1.60;;
2838;SDS011;1427;48.510;9.060;2024-01-27T05:05:07;44.60;;;1.57;;
2838;SDS011;1427;48.510;9.060;2024-01-27T05:07:36;44.40;;;1.60;;
2838;SDS011;1427;48.510;9.060;2024-01-27T05:10:04;44.50;;;1.47;;
2838;SDS011;1427;48.510;9.060;2024-01-27T05:12:33;44.60;;;1.60;;
2838;SDS011;1427;48.510;9.060;2024-01-27T05:15:01;44.63;;;1.60;;
2838;SDS011;1427;48.510;9.060;2024-01-27T05:17:30;44.67;;;1.70;;
2838;SDS011;1427;48.510;9.060;2024-01-27T05:19:58;44.87;;;1.60;;
2838;SDS011;1427;48.510;9.060;2024-01-27T05:22:30;44.30;;;1.47;;
2838;SDS011;1427;48.510;9.060;2024-01-27T05:24:58;44.60;;;1.60;;
2838;SDS011;1427;48.510;9.060;2024-01-27T05:27:26;44.60;;;1.53;;
2838;SDS011;1427;48.510;9.060;2024-01-27T05:29:54;44.83;;;1.60;;
2838;SDS011;1427;48.510;9.060;2024-01-27T05:32:22;62.53;;;2.67;;
2838;SDS011;1427;48.510;9.060;2024-01-27T05:34:52;44.80;;;1.57;;
2838;SDS011;1427;48.510;9.060;2024-01-27T05:37:20;44.60;;;1.40;;
2838;SDS011;1427;48.510;9.060;2024-01-27T05:39:48;44.53;;;1.47;;
2838;SDS011;1427;48.510;9.060;2024-01-27T05:42:16;44.47;;;1.47;;
2838;SDS011;1427;48.510;9.060;2024-01-27T05:44:44;44.70;;;1.53;;
2838;SDS011;1427;48.510;9.060;2024-01-27T05:47:12;44.67;;;1.60;;
2838;SDS011;1427;48.510;9.060;2024-01-27T05:49:40;44.83;;;1.60;;
2838;SDS011;1427;48.510;9.060;2024-01-27T05:52:10;44.70;;;1.77;;
2838;SDS011;1427;48.510;9.060;2024-01-27T05:54:50;44.40;;;1.50;;
2838;SDS011;1427;48.510;9.060;2024-01-27T05:57:19;44.57;;;1.60;;
2838;SDS011;1427;48.510;9.060;2024-01-27T05:59:47;44.57;;;1.50;;
2838;SDS011;1427;48.510;9.060;2024-01-27T06:02:15;44.67;;;1.40;;
2838;SDS011;1427;48.510;9.060;2024-01-27T06:04:45;44.77;;;1.67;;
2838;SDS011;1427;48.510;9.060;2024-01-27T06:07:15;44.77;;;1.60;;
2838;SDS011;1427;48.510;9.060;2024-01-27T06:09:43;44.80;;;1.70;;
2838;SDS011;1427;48.510;9.060;2024-01-27T06:12:11;44.60;;;1.60;;
2838;SDS011;1427;48.510;9.060;2024-01-27T06:14:40;44.73;;;2.00;;
2838;SDS011;1427;48.510;9.060;2024-01-27T06:17:08;44.63;;;1.70;;
2838;SDS011;1427;48.510;9.060;2024-01-27T06:19:37;44.90;;;1.73;;
2838;SDS011;1427;48.510;9.060;2024-01-27T06:22:05;44.60;;;1.70;;
2838;SDS011;1427;48.510;9.060;2024-01-27T06:24:34;44.70;;;1.70;;
2838;SDS011;1427;48.510;9.060;2024-01-27T06:27:09;44.70;;;1.80;;
2838;SDS011;1427;48.510;9.060;2024-01-27T06:29:37;44.70;;;1.77;;
2838;SDS011;1427;48.510;9.060;2024-01-27T06:32:06;44.60;;;2.00;;
2838;SDS011;1427;48.510;9.060;2024-01-27T06:34:38;44.60;;;1.87;;
2838;SDS011;1427;48.510;9.060;2024-01-27T06:37:06;44.50;;;1.83;;
2838;SDS011;1427;48.510;9.060;2024-01-27T06:39:36;44.77;;;1.90;;
2838;SDS011;1427;48.510;9.060;2024-01-27T06:42:04;44.70;;;1.80;;
2838;SDS011;1427;48.510;9.060;2024-01-27T06:44:33;44.47;;;1.70;;
2838;SDS011;1427;48.510;9.060;2024-01-27T06:47:01;44.60;;;1.73;;
2838;SDS011;1427;48.510;9.060;2024-01-27T06:49:29;44.67;;;1.70;;
2838;SDS011;1427;48.510;9.060;2024-01-27T06:51:57;44.50;;;1.73;;
2838;SDS011;1427;48.510;9.060;2024-01-27T06:54:25;44.60;;;1.70;;
2838;SDS011;1427;48.510;9.060;2024-01-27T06:56:54;44.67;;;1.80;;
2838;SDS011;1427;48.510;9.060;2024-01-27T06:59:22;44.80;;;1.93;;
2838;SDS011;1427;48.510;9.060;2024-01-27T07:01:50;44.77;;;1.80;;
2838;SDS011;1427;48.510;9.060;2024-01-27T07:04:18;44.70;;;1.90;;
2838;SDS011;1427;48.510;9.060;2024-01-27T07:06:47;44.77;;;1.80;;
2838;SDS011;1427;48.510;9.060;2024-01-27T07:09:15;44.50;;;1.70;;
2838;SDS011;1427;48.510;9.060;2024-01-27T07:11:43;44.40;;;1.60;;
2838;SDS011;1427;48.510;9.060;2024-01-27T07:14:12;44.73;;;1.70;;
2838;SDS011;1427;48.510;9.060;2024-01-27T07:16:40;44.60;;;1.50;;
2838;SDS011;1427;48.510;9.060;2024-01-27T07:19:08;44.83;;;2.37;;
2838;SDS011;1427;48.510;9.060;2024-01-27T07:21:37;44.47;;;1.60;;
2838;SDS011;1427;48.510;9.060;2024-01-27T07:24:06;45.33;;;4.03;;
2838;SDS011;1427;48.510;9.060;2024-01-27T07:26:34;46.80;;;5.03;;
2838;SDS011;1427;48.510;9.060;2024-01-27T07:29:02;45.40;;;3.30;;
2838;SDS011;1427;48.510;9.060;2024-01-27T07:31:31;48.70;;;4.57;;
2838;SDS011;1427;48.510;9.060;2024-01-27T07:33:59;45.47;;;3.27;;
2838;SDS011;1427;48.510;9.060;2024-01-27T07:36:27;45.20;;;3.00;;
2838;SDS011;1427;48.510;9.060;2024-01-27T07:38:58;45.20;;;3.17;;
2838;SDS011;1427;48.510;9.060;2024-01-27T07:41:26;45.63;;;3.90;;
2838;SDS011;1427;48.510;9.060;2024-01-27T07:43:57;64.47;;;6.90;;
2838;SDS011;1427;48.510;9.060;2024-01-27T07:46:35;45.47;;;3.50;;
2838;SDS011;1427;48.510;9.060;2024-01-27T07:49:03;44.93;;;3.20;;
2838;SDS011;1427;48.510;9.060;2024-01-27T07:51:31;44.87;;;2.70;;
2838;SDS011;1427;48.510;9.060;2024-01-27T07:54:00;44.67;;;2.23;;
2838;SDS011;1427;48.510;9.060;2024-01-27T07:56:29;45.10;;;3.00;;
2838;SDS011;1427;48.510;9.060;2024-01-27T07:58:57;45.10;;;3.20;;
2838;SDS011;1427;48.510;9.060;2024-01-27T08:01:27;45.20;;;3.00;;
2838;SDS011;1427;48.510;9.060;2024-01-27T08:03:56;45.43;;;3.27;;
2838;SDS011;1427;48.510;9.060;2024-01-27T08:06:27;45.23;;;3.07;;
2838;SDS011;1427;48.510;9.060;2024-01-27T08:08:56;45.20;;;3.07;;
2838;SDS011;1427;48.510;9.060;2024-01-27T08:11:26;45.10;;;2.93;;
2838;SDS011;1427;48.510;9.060;2024-01-27T08:13:57;45.07;;;2.87;;
2838;SDS011;1427;48.510;9.060;2024-01-27T08:16:25;45.17;;;3.30;;
2838;SDS011;1427;48.510;9.060;2024-01-27T08:18:53;45.40;;;3.50;;
2838;SDS011;1427;48.510;9.060;2024-01-27T08:21:23;45.50;;;4.10;;
2838;SDS011;1427;48.510;9.060;2024-01-27T08:23:51;46.40;;;6.13;;
2838;SDS011;1427;48.510;9.060;2024-01-27T08:26:19;45.27;;;3.30;;
2838;SDS011;1427;48.510;9.060;2024-01-27T08:28:48;45.10;;;3.23;;
2838;SDS011;1427;48.510;9.060;2024-01-27T08:31:16;45.77;;;4.33;;
2838;SDS011;1427;48.510;9.060;2024-01-27T08:33:44;45.07;;;3.27;;
2838;SDS011;1427;48.510;9.060;2024-01-27T08:36:13;45.20;;;3.13;;
2838;SDS011;1427;48.510;9.060;2024-01-27T08:38:43;45.10;;;3.20;;
2838;SDS011;1427;48.510;9.060;2024-01-27T08:41:11;44.97;;;3.20;;
2838;SDS011;1427;48.510;9.060;2024-01-27T08:43:39;45.70;;;3.90;;
2838;SDS011;1427;48.510;9.060;2024-01-27T08:46:07;45.17;;;3.30;;
2838;SDS011;1427;48.510;9.060;2024-01-27T08:48:38;44.80;;;3.00;;
2838;SDS011;1427;48.510;9.060;2024-01-27T08:51:08;45.07;;;3.10;;
2838;SDS011;1427;48.510;9.060;2024-01-27T08:53:36;44.93;;;3.10;;
2838;SDS011;1427;48.510;9.060;2024-01-27T08:56:06;45.07;;;3.57;;
2838;SDS011;1427;48.510;9.060;2024-01-27T08:58:34;45.60;;;4.27;;
2838;SDS011;1427;48.510;9.060;2024-01-27T09:01:02;45.00;;;3.23;;
2838;SDS011;1427;48.510;9.060;2024-01-27T09:03:32;44.90;;;3.30;;
2838;SDS011;1427;48.510;9.060;2024-01-27T09:06:00;44.93;;;3.17;;
2838;SDS011;1427;48.510;9.060;2024-01-27T09:08:29;45.37;;;4.20;;
2838;SDS011;1427;48.510;9.060;2024-01-27T09:10:57;45.47;;;3.90;;
2838;SDS011;1427;48.510;9.060;2024-01-27T09:13:27;44.87;;;3.07;;
2838;SDS011;1427;48.510;9.060;2024-01-27T09:15:56;45.10;;;3.23;;
2838;SDS011;1427;48.510;9.060;2024-01-27T09:18:24;45.10;;;3.20;;
2838;SDS011;1427;48.510;9.060;2024-01-27T09:20:55;44.80;;;2.70;;
2838;SDS011;1427;48.510;9.060;2024-01-27T09:23:23;45.10;;;3.00;;
2838;SDS011;1427;48.510;9.060;2024-01-27T09:25:52;45.67;;;3.90;;
2838;SDS011;1427;48.510;9.060;2024-01-27T09:28:20;45.47;;;3.40;;
2838;SDS011;1427;48.510;9.060;2024-01-27T09:30:49;45.00;;;3.07;;
2838;SDS011;1427;48.510;9.060;2024-01-27T09:33:17;45.73;;;4.43;;
2838;SDS011;1427;48.510;9.060;2024-01-27T09:35:49;45.13;;;3.37;;
2838;SDS011;1427;48.510;9.060;2024-01-27T09:38:17;45.37;;;3.33;;
2838;SDS011;1427;48.510;9.060;2024-01-27T09:40:46;45.30;;;3.50;;
2838;SDS011;1427;48.510;9.060;2024-01-27T09:43:14;45.57;;;3.80;;
2838;SDS011;1427;48.510;9.060;2024-01-27T09:45:45;45.40;;;3.60;;
2838;SDS011;1427;48.510;9.060;2024-01-27T09:48:15;46.40;;;4.80;;
2838;SDS011;1427;48.510;9.060;2024-01-27T09:50:45;45.50;;;3.70;;
2838;SDS011;1427;48.510;9.060;2024-01-27T09:53:16;45.47;;;3.80;;
2838;SDS011;1427;48.510;9.060;2024-01-27T09:55:44;45.90;;;4.13;;
2838;SDS011;1427;48.510;9.060;2024-01-27T09:58:12;45.10;;;3.33;;
2838;SDS011;1427;48.510;9.060;2024-01-27T10:00:41;45.37;;;3.43;;
2838;SDS011;1427;48.510;9.060;2024-01-27T10:03:10;45.33;;;3.40;;
2838;SDS011;1427;48.510;9.060;2024-01-27T10:05:40;45.20;;;3.20;;
2838;SDS011;1427;48.510;9.060;2024-01-27T10:08:09;45.20;;;3.33;;
2838;SDS011;1427;48.510;9.060;2024-01-27T10:10:38;45.43;;;4.00;;
2838;SDS011;1427;48.510;9.060;2024-01-27T10:13:06;45.27;;;3.90;;
2838;SDS011;1427;48.510;9.060;2024-01-27T10:15:34;45.50;;;3.67;;
2838;SDS011;1427;48.510;9.060;2024-01-27T10:18:05;45.10;;;3.27;;
2838;SDS011;1427;48.510;9.060;2024-01-27T10:20:35;45.50;;;3.60;;
2838;SDS011;1427;48.510;9.060;2024-01-27T10:23:13;45.23;;;4.00;;
2838;SDS011;1427;48.510;9.060;2024-01-27T10:25:42;45.70;;;4.30;;
2838;SDS011;1427;48.510;9.060;2024-01-27T10:28:11;45.13;;;3.23;;
2838;SDS011;1427;48.510;9.060;2024-01-27T10:30:39;54.33;;;5.80;;
2838;SDS011;1427;48.510;9.060;2024-01-27T10:33:07;45.63;;;4.33;;
2838;SDS011;1427;48.510;9.060;2024-01-27T10:35:37;45.20;;;3.30;;
2838;SDS011;1427;48.510;9.060;2024-01-27T10:38:05;45.00;;;2.60;;
2838;SDS011;1427;48.510;9.060;2024-01-27T10:40:34;45.20;;;3.33;;
2838;SDS011;1427;48.510;9.060;2024-01-27T10:43:03;45.10;;;3.10;;
2838;SDS011;1427;48.510;9.060;2024-01-27T10:45:34;45.20;;;3.20;;
2838;SDS011;1427;48.510;9.060;2024-01-27T10:48:04;45.20;;;3.30;;
2838;SDS011;1427;48.510;9.060;2024-01-27T10:50:37;45.17;;;3.13;;
2838;SDS011;1427;48.510;9.060;2024-01-27T10:53:15;45.10;;;3.43;;
2838;SDS011;1427;48.510;9.060;2024-01-27T10:55:51;45.50;;;3.80;;
2838;SDS011;1427;48.510;9.060;2024-01-27T10:58:22;45.07;;;3.27;;
2838;SDS011;1427;48.510;9.060;2024-01-27T11:00:51;45.30;;;3.70;;
2838;SDS011;1427;48.510;9.060;2024-01-27T11:03:21;45.40;;;3.30;;
2838;SDS011;1427;48.510;9.060;2024-01-27T11:05:51;45.00;;;2.70;;
2838;SDS011;1427;48.510;9.060;2024-01-27T11:08:21;45.03;;;3.10;;
2838;SDS011;1427;48.510;9.060;2024-01-27T11:10:56;45.80;;;4.33;;
2838;SDS011;1427;48.510;9.060;2024-01-27T11:13:25;44.90;;;2.80;;
2838;SDS011;1427;48.510;9.060;2024-01-27T11:15:55;45.67;;;3.83;;
2838;SDS011;1427;48.510;9.060;2024-01-27T11:18:25;45.47;;;3.07;;
2838;SDS011;1427;48.510;9.060;2024-01-27T11:20:54;45.80;;;3.90;;
2838;SDS011;1427;48.510;9.060;2024-01-27T11:23:31;47.10;;;5.33;;
2838;SDS011;1427;48.510;9.060;2024-01-27T11:26:04;45.40;;;3.10;;
2838;SDS011;1427;48.510;9.060;2024-01-27T11:28:35;46.30;;;5.20;;
2838;SDS011;1427;48.510;9.060;2024-01-27T11:31:03;45.90;;;3.13;;
2838;SDS011;1427;48.510;9.060;2024-01-27T11:33:32;45.90;;;3.27;;
2838;SDS011;1427;48.510;9.060;2024-01-27T11:36:01;46.30;;;3.97;;
2838;SDS011;1427;48.510;9.060;2024-01-27T11:38:31;45.67;;;2.93;;
2838;SDS011;1427;48.510;9.060;2024-01-27T11:41:00;46.50;;;4.50;;
2838;SDS011;1427;48.510;9.060;2024-01-27T11:43:30;45.60;;;3.27;;
2838;SDS011;1427;48.510;9.060;2024-01-27T11:45:58;45.13;;;2.97;;
2838;SDS011;1427;48.510;9.060;2024-01-27T11:48:26;45.67;;;3.30;;
2838;SDS011;1427;48.510;9.060;2024-01-27T11:51:03;45.70;;;3.33;;
2838;SDS011;1427;48.510;9.060;2024-01-27T11:53:32;45.67;;;3.57;;
2838;SDS011;1427;48.510;9.060;2024-01-27T11:56:00;45.70;;;4.03;;
2838;SDS011;1427;48.510;9.060;2024-01-27T11:58:29;45.40;;;3.30;;
2838;SDS011;1427;48.510;9.060;2024-01-27T12:00:57;45.40;;;3.10;;
2838;SDS011;1427;48.510;9.060;2024-01-27T12:03:27;45.67;;;3.40;;
2838;SDS011;1427;48.510;9.060;2024-01-27T12:05:55;45.93;;;4.87;;
2838;SDS011;1427;48.510;9.060;2024-01-27T12:08:23;45.00;;;2.77;;
2838;SDS011;1427;48.510;9.060;2024-01-27T12:10:51;45.70;;;3.47;;
2838;SDS011;1427;48.510;9.060;2024-01-27T12:13:19;45.53;;;3.87;;
2838;SDS011;1427;48.510;9.060;2024-01-27T12:15:49;45.73;;;3.70;;
2838;SDS011;1427;48.510;9.060;2024-01-27T12:18:17;45.23;;;3.30;;
2838;SDS011;1427;48.510;9.060;2024-01-27T12:20:53;45.00;;;3.30;;
2838;SDS011;1427;48.510;9.060;2024-01-27T12:23:22;49.80;;;3.60;;
2838;SDS011;1427;48.510;9.060;2024-01-27T12:25:54;45.37;;;3.27;;
2838;SDS011;1427;48.510;9.060;2024-01-27T12:28:23;45.30;;;3.60;;
2838;SDS011;1427;48.510;9.060;2024-01-27T12:30:53;45.47;;;3.07;;
2838;SDS011;1427;48.510;9.060;2024-01-27T12:33:21;45.00;;;3.23;;
2838;SDS011;1427;48.510;9.060;2024-01-27T12:35:51;45.80;;;3.40;;
2838;SDS011;1427;48.510;9.060;2024-01-27T12:38:22;45.37;;;3.50;;
2838;SDS011;1427;48.510;9.060;2024-01-27T12:40:50;44.90;;;3.20;;
2838;SDS011;1427;48.510;9.060;2024-01-27T12:43:18;44.87;;;2.93;;
2838;SDS011;1427;48.510;9.060;2024-01-27T12:45:46;50.17;;;7.57;;
2838;SDS011;1427;48.510;9.060;2024-01-27T12:48:16;45.30;;;3.47;;
2838;SDS011;1427;48.510;9.060;2024-01-27T12:50:44;53.73;;;8.47;;
2838;SDS011;1427;48.510;9.060;2024-01-27T12:53:13;45.47;;;3.60;;
2838;SDS011;1427;48.510;9.060;2024-01-27T12:55:41;45.57;;;3.63;;
2838;SDS011;1427;48.510;9.060;2024-01-27T12:58:09;46.10;;;4.63;;
2838;SDS011;1427;48.510;9.060;2024-01-27T13:00:37;45.10;;;3.07;;
2838;SDS011;1427;48.510;9.060;2024-01-27T13:03:05;45.40;;;3.27;;
2838;SDS011;1427;48.510;9.060;2024-01-27T13:05:35;46.20;;;4.77;;
2838;SDS011;1427;48.510;9.060;2024-01-27T13:08:04;45.77;;;4.00;;
2838;SDS011;1427;48.510;9.060;2024-01-27T13:10:34;45.73;;;3.57;;
2838;SDS011;1427;48.510;9.060;2024-01-27T13:13:02;47.63;;;4.23;;
2838;SDS011;1427;48.510;9.060;2024-01-27T13:15:31;45.80;;;3.63;;
2838;SDS011;1427;48.510;9.060;2024-01-27T13:17:59;46.10;;;4.43;;
2838;SDS011;1427;48.510;9.060;2024-01-27T13:20:27;46.00;;;3.83;;
2838;SDS011;1427;48.510;9.060;2024-01-27T13:22:57;50.70;;;5.37;;
2838;SDS011;1427;48.510;9.060;2024-01-27T13:25:25;45.80;;;3.07;;
2838;SDS011;1427;48.510;9.060;2024-01-27T13:27:53;46.50;;;3.93;;
2838;SDS011;1427;48.510;9.060;2024-01-27T13:30:22;45.70;;;3.07;;
2838;SDS011;1427;48.510;9.060;2024-01-27T13:32:51;46.77;;;3.87;;
2838;SDS011;1427;48.510;9.060;2024-01-27T13:35:20;52.10;;;4.80;;
2838;SDS011;1427;48.510;9.060;2024-01-27T13:37:48;47.87;;;4.77;;
2838;SDS011;1427;48.510;9.060;2024-01-27T13:40:18;49.60;;;3.77;;
2838;SDS011;1427;48.510;9.060;2024-01-27T13:42:48;59.70;;;6.43;;
2838;SDS011;1427;48.510;9.060;2024-01-27T13:45:16;47.50;;;4.67;;
2838;SDS011;1427;48.510;9.060;2024-01-27T13:47:44;51.93;;;4.77;;
2838;SDS011;1427;48.510;9.060;2024-01-27T13:50:12;51.60;;;4.80;;
2838;SDS011;1427;48.510;9.060;2024-01-27T13:52:42;46.70;;;4.03;;
2838;SDS011;1427;48.510;9.060;2024-01-27T13:55:11;47.87;;;4.77;;
2838;SDS011;1427;48.510;9.060;2024-01-27T13:57:41;50.17;;;5.57;;
2838;SDS011;1427;48.510;9.060;2024-01-27T14:00:09;49.00;;;5.13;;
2838;SDS011;1427;48.510;9.060;2024-01-27T14:02:39;50.30;;;5.60;;
2838;SDS011;1427;48.510;9.060;2024-01-27T14:05:07;53.80;;;7.20;;
2838;SDS011;1427;48.510;9.060;2024-01-27T14:07:35;54.17;;;5.67;;
2838;SDS011;1427;48.510;9.060;2024-01-27T14:10:03;52.23;;;6.70;;
2838;SDS011;1427;48.510;9.060;2024-01-27T14:12:32;49.03;;;4.27;;
2838;SDS011;1427;48.510;9.060;2024-01-27T14:15:05;54.63;;;5.67;;
2838;SDS011;1427;48.510;9.060;2024-01-27T14:17:35;48.57;;;5.67;;
2838;SDS011;1427;48.510;9.060;2024-01-27T14:20:04;51.43;;;4.90;;
2838;SDS011;1427;48.510;9.060;2024-01-27T14:22:35;52.73;;;4.93;;
2838;SDS011;1427;48.510;9.060;2024-01-27T14:25:03;48.40;;;4.37;;
2838;SDS011;1427;48.510;9.060;2024-01-27T14:27:32;47.47;;;3.97;;
2838;SDS011;1427;48.510;9.060;2024-01-27T14:30:01;51.43;;;6.47;;
2838;SDS011;1427;48.510;9.060;2024-01-27T14:32:31;53.00;;;5.87;;
2838;SDS011;1427;48.510;9.060;2024-01-27T14:35:00;48.47;;;5.10;;
2838;SDS011;1427;48.510;9.060;2024-01-27T14:37:32;50.23;;;4.67;;
2838;SDS011;1427;48.510;9.060;2024-01-27T14:40:00;52.90;;;5.60;;
2838;SDS011;1427;48.510;9.060;2024-01-27T14:42:31;52.07;;;6.07;;
2838;SDS011;1427;48.510;9.060;2024-01-27T14:45:00;55.30;;;5.57;;
2838;SDS011;1427;48.510;9.060;2024-01-27T14:47:28;49.27;;;4.53;;
2838;SDS011;1427;48.510;9.060;2024-01-27T14:49:57;52.47;;;5.37;;
2838;SDS011;1427;48.510;9.060;2024-01-27T14:52:25;52.70;;;6.57;;
2838;SDS011;1427;48.510;9.060;2024-01-27T14:54:53;51.57;;;5.80;;
2838;SDS011;1427;48.510;9.060;2024-01-27T14:57:21;48.97;;;4.40;;
2838;SDS011;1427;48.510;9.060;2024-01-27T14:59:50;50.70;;;6.30;;
2838;SDS011;1427;48.510;9.060;2024-01-27T15:02:18;52.13;;;5.43;;
2838;SDS011;1427;48.510;9.060;2024-01-27T15:04:51;50.47;;;6.00;;
2838;SDS011;1427;48.510;9.060;2024-01-27T15:07:20;52.30;;;5.30;;
2838;SDS011;1427;48.510;9.060;2024-01-27T15:09:54;55.07;;;7.10;;